sensor_id;sensor_type;location;lat;lon;timestamp;pressure;altitude;pressure_sealevel;temperature;humidity
69173;BME280;56280;49.662;8.408;2023-04-05T00:00:37;101423.31;;;4.30;52.62
69173;BME280;56280;49.662;8.408;2023-04-05T00:03:03;101437.16;;;4.35;53.83
69173;BME280;56280;49.662;8.408;2023-04-05T00:05:28;101452.09;;;4.35;53.95
69173;BME280;56280;49.662;8.408;2023-04-05T00:07:59;101441.69;;;4.32;53.63
69173;BME280;56280;49.662;8.408;2023-04-05T00:10:30;101447.00;;;4.30;54.50
69173;BME280;56280;49.662;8.408;2023-04-05T00:12:56;101431.41;;;4.26;54.50
69173;BME280;56280;49.662;8.408;2023-04-05T00:15:21;101441.97;;;4.24;55.52
69173;BME280;56280;49.662;8.408;2023-04-05T00:17:47;101443.84;;;3.98;57.56
69173;BME280;56280;49.662;8.408;2023-04-05T00:20:12;101446.38;;;4.24;57.63
69173;BME280;56280;49.662;8.408;2023-04-05T00:22:39;101443.06;;;4.18;57.30
69173;BME280;56280;49.662;8.408;2023-04-05T00:25:06;101437.31;;;4.09;56.57
69173;BME280;56280;49.662;8.408;2023-04-05T00:27:31;101434.19;;;4.21;56.45
69173;BME280;56280;49.662;8.408;2023-04-05T00:29:56;101397.81;;;3.88;56.79
69173;BME280;56280;49.662;8.408;2023-04-05T00:32:22;101432.72;;;3.92;57.06
69173;BME280;56280;49.662;8.408;2023-04-05T00:34:48;101403.97;;;3.87;55.85
69173;BME280;56280;49.662;8.408;2023-04-05T00:37:13;101426.34;;;3.97;55.86
69173;BME280;56280;49.662;8.408;2023-04-05T00:39:40;101403.00;;;3.90;55.79
69173;BME280;56280;49.662;8.408;2023-04-05T00:42:06;101430.06;;;4.15;55.10
69173;BME280;56280;49.662;8.408;2023-04-05T00:44:32;101406.69;;;4.08;55.99
69173;BME280;56280;49.662;8.408;2023-04-05T00:47:06;101398.25;;;3.99;56.14
69173;BME280;56280;49.662;8.408;2023-04-05T00:49:34;101402.81;;;4.16;56.70
69173;BME280;56280;49.662;8.408;2023-04-05T00:52:01;101427.16;;;3.99;57.06
69173;BME280;56280;49.662;8.408;2023-04-05T00:54:27;101411.28;;;3.79;59.67
69173;BME280;56280;49.662;8.408;2023-04-05T00:56:56;101415.28;;;3.89;60.90
69173;BME280;56280;49.662;8.408;2023-04-05T00:59:23;101416.69;;;3.98;61.16
69173;BME280;56280;49.662;8.408;2023-04-05T01:01:55;101408.22;;;3.68;61.12
69173;BME280;56280;49.662;8.408;2023-04-05T01:04:28;101406.88;;;3.56;61.68
69173;BME280;56280;49.662;8.408;2023-04-05T01:09:47;101397.78;;;3.41;60.67
69173;BME280;56280;49.662;8.408;2023-04-05T01:12:17;101406.56;;;3.41;60.51
69173;BME280;56280;49.662;8.408;2023-04-05T01:14:49;101409.63;;;3.29;62.10
69173;BME280;56280;49.662;8.408;2023-04-05T01:17:16;101406.34;;;2.97;61.96
69173;BME280;56280;49.662;8.408;2023-04-05T01:19:47;101391.19;;;2.53;65.58
69173;BME280;56280;49.662;8.408;2023-04-05T01:22:38;101412.09;;;2.28;66.76
69173;BME280;56280;49.662;8.408;2023-04-05T01:30:25;101408.25;;;1.84;68.13
69173;BME280;56280;49.662;8.408;2023-04-05T01:38:22;101393.38;;;2.41;64.58
69173;BME280;56280;49.662;8.408;2023-04-05T01:40:49;101369.41;;;2.51;63.89
69173;BME280;56280;49.662;8.408;2023-04-05T01:43:16;101381.09;;;2.68;62.99
69173;BME280;56280;49.662;8.408;2023-04-05T01:45:43;101395.47;;;2.83;62.31
69173;BME280;56280;49.662;8.408;2023-04-05T01:48:09;101390.66;;;2.96;63.63
69173;BME280;56280;49.662;8.408;2023-04-05T01:50:35;101392.31;;;2.98;63.74
69173;BME280;56280;49.662;8.408;2023-04-05T01:53:00;101391.72;;;2.90;64.83
69173;BME280;56280;49.662;8.408;2023-04-05T01:55:25;101392.53;;;2.92;64.43
69173;BME280;56280;49.662;8.408;2023-04-05T01:57:53;101373.28;;;2.66;65.09
69173;BME280;56280;49.662;8.408;2023-04-05T02:00:19;101383.31;;;2.53;64.76
69173;BME280;56280;49.662;8.408;2023-04-05T02:02:45;101374.59;;;2.53;64.50
69173;BME280;56280;49.662;8.408;2023-04-05T02:05:11;101372.34;;;2.42;65.50
69173;BME280;56280;49.662;8.408;2023-04-05T02:07:36;101370.66;;;2.66;65.13
69173;BME280;56280;49.662;8.408;2023-04-05T02:10:01;101378.47;;;2.68;64.62
69173;BME280;56280;49.662;8.408;2023-04-05T02:12:27;101379.34;;;2.94;65.05
69173;BME280;56280;49.662;8.408;2023-04-05T02:14:52;101375.50;;;2.79;65.06
69173;BME280;56280;49.662;8.408;2023-04-05T02:17:17;101367.63;;;2.79;64.44
69173;BME280;56280;49.662;8.408;2023-04-05T02:19:42;101346.88;;;2.71;63.96
69173;BME280;56280;49.662;8.408;2023-04-05T02:22:10;101383.19;;;2.83;64.29
69173;BME280;56280;49.662;8.408;2023-04-05T02:24:36;101380.03;;;2.73;64.68
69173;BME280;56280;49.662;8.408;2023-04-05T02:27:02;101371.72;;;2.61;64.60
69173;BME280;56280;49.662;8.408;2023-04-05T02:29:28;101374.50;;;2.56;64.69
69173;BME280;56280;49.662;8.408;2023-04-05T02:31:53;101381.59;;;2.52;64.75
69173;BME280;56280;49.662;8.408;2023-04-05T02:34:19;101359.81;;;2.24;64.67
69173;BME280;56280;49.662;8.408;2023-04-05T02:36:44;101370.97;;;2.30;65.59
69173;BME280;56280;49.662;8.408;2023-04-05T02:39:09;101379.06;;;2.49;65.22
69173;BME280;56280;49.662;8.408;2023-04-05T02:41:35;101382.91;;;2.39;65.53
69173;BME280;56280;49.662;8.408;2023-04-05T02:44:01;101373.72;;;2.52;65.44
69173;BME280;56280;49.662;8.408;2023-04-05T02:46:26;101358.47;;;2.39;64.56
69173;BME280;56280;49.662;8.408;2023-04-05T02:48:52;101378.66;;;2.35;65.66
69173;BME280;56280;49.662;8.408;2023-04-05T02:51:17;101383.72;;;2.41;66.04
69173;BME280;56280;49.662;8.408;2023-04-05T02:53:42;101362.13;;;2.33;66.37
69173;BME280;56280;49.662;8.408;2023-04-05T02:56:09;101380.31;;;2.11;65.94
69173;BME280;56280;49.662;8.408;2023-04-05T02:58:37;101379.28;;;2.16;66.70
69173;BME280;56280;49.662;8.408;2023-04-05T03:01:03;101385.06;;;1.98;66.33
69173;BME280;56280;49.662;8.408;2023-04-05T03:03:32;101385.47;;;1.56;67.64
69173;BME280;56280;49.662;8.408;2023-04-05T03:06:04;101381.56;;;1.39;68.68
69173;BME280;56280;49.662;8.408;2023-04-05T03:08:40;101358.31;;;0.97;70.18
69173;BME280;56280;49.662;8.408;2023-04-05T03:11:11;101375.63;;;1.01;70.77
69173;BME280;56280;49.662;8.408;2023-04-05T03:13:36;101372.91;;;1.67;69.22
69173;BME280;56280;49.662;8.408;2023-04-05T03:16:02;101355.78;;;1.85;68.07
69173;BME280;56280;49.662;8.408;2023-04-05T03:18:28;101328.81;;;1.81;67.51
69173;BME280;56280;49.662;8.408;2023-04-05T03:20:54;101347.88;;;1.87;66.71
69173;BME280;56280;49.662;8.408;2023-04-05T03:23:24;101368.06;;;1.83;66.52
69173;BME280;56280;49.662;8.408;2023-04-05T03:26:01;101365.72;;;1.74;66.61
69173;BME280;56280;49.662;8.408;2023-04-05T03:28:28;101368.47;;;1.99;66.25
69173;BME280;56280;49.662;8.408;2023-04-05T03:30:54;101364.81;;;1.75;66.93
69173;BME280;56280;49.662;8.408;2023-04-05T03:33:20;101352.94;;;1.33;67.87
69173;BME280;56280;49.662;8.408;2023-04-05T03:35:46;101354.56;;;0.75;71.21
69173;BME280;56280;49.662;8.408;2023-04-05T03:38:11;101349.31;;;0.75;71.65
69173;BME280;56280;49.662;8.408;2023-04-05T03:40:37;101358.31;;;0.97;71.54
69173;BME280;56280;49.662;8.408;2023-04-05T03:43:02;101363.06;;;1.14;70.75
69173;BME280;56280;49.662;8.408;2023-04-05T03:45:27;101362.56;;;1.62;68.67
69173;BME280;56280;49.662;8.408;2023-04-05T03:47:57;101349.34;;;1.37;68.37
69173;BME280;56280;49.662;8.408;2023-04-05T03:50:22;101366.66;;;1.41;68.81
69173;BME280;56280;49.662;8.408;2023-04-05T03:52:47;101360.53;;;1.11;69.46
69173;BME280;56280;49.662;8.408;2023-04-05T03:55:13;101370.22;;;0.76;71.07
69173;BME280;56280;49.662;8.408;2023-04-05T03:57:41;101344.00;;;1.11;70.93
69173;BME280;56280;49.662;8.408;2023-04-05T04:00:07;101355.56;;;1.33;69.64
69173;BME280;56280;49.662;8.408;2023-04-05T04:02:41;101355.34;;;1.41;69.30
69173;BME280;56280;49.662;8.408;2023-04-05T04:05:07;101355.94;;;1.51;68.71
69173;BME280;56280;49.662;8.408;2023-04-05T04:07:33;101321.19;;;1.45;68.58
69173;BME280;56280;49.662;8.408;2023-04-05T04:09:58;101327.34;;;1.43;67.96
69173;BME280;56280;49.662;8.408;2023-04-05T04:12:23;101320.63;;;1.34;67.92
69173;BME280;56280;49.662;8.408;2023-04-05T04:14:49;101346.78;;;1.36;67.85
69173;BME280;56280;49.662;8.408;2023-04-05T04:17:31;101338.19;;;0.99;69.32
69173;BME280;56280;49.662;8.408;2023-04-05T04:19:57;101346.25;;;0.59;70.41
69173;BME280;56280;49.662;8.408;2023-04-05T04:22:23;101329.78;;;0.19;71.63
69173;BME280;56280;49.662;8.408;2023-04-05T04:24:53;101326.22;;;0.23;72.30
69173;BME280;56280;49.662;8.408;2023-04-05T04:27:19;101334.00;;;-0.11;73.71
69173;BME280;56280;49.662;8.408;2023-04-05T04:29:45;101344.56;;;0.56;72.54
69173;BME280;56280;49.662;8.408;2023-04-05T04:32:15;101343.41;;;0.68;71.48
69173;BME280;56280;49.662;8.408;2023-04-05T04:34:41;101348.78;;;0.62;71.73
69173;BME280;56280;49.662;8.408;2023-04-05T04:37:13;101315.47;;;0.35;71.63
69173;BME280;56280;49.662;8.408;2023-04-05T04:39:45;101325.19;;;0.65;71.36
69173;BME280;56280;49.662;8.408;2023-04-05T04:42:11;101346.44;;;0.85;70.37
69173;BME280;56280;49.662;8.408;2023-04-05T04:44:37;101352.47;;;0.53;70.91
69173;BME280;56280;49.662;8.408;2023-04-05T04:47:02;101347.72;;;0.69;71.72
69173;BME280;56280;49.662;8.408;2023-04-05T04:49:29;101335.34;;;0.76;70.98
69173;BME280;56280;49.662;8.408;2023-04-05T04:51:54;101344.72;;;0.84;70.53
69173;BME280;56280;49.662;8.408;2023-04-05T04:54:22;101353.06;;;0.64;71.28
69173;BME280;56280;49.662;8.408;2023-04-05T04:56:47;101347.25;;;0.53;71.54
69173;BME280;56280;49.662;8.408;2023-04-05T04:59:13;101338.47;;;0.56;71.33
69173;BME280;56280;49.662;8.408;2023-04-05T05:01:38;101360.88;;;0.66;71.03
69173;BME280;56280;49.662;8.408;2023-04-05T05:04:04;101359.03;;;0.71;70.59
69173;BME280;56280;49.662;8.408;2023-04-05T05:06:30;101356.84;;;0.87;70.08
69173;BME280;56280;49.662;8.408;2023-04-05T05:08:56;101359.44;;;1.20;69.29
69173;BME280;56280;49.662;8.408;2023-04-05T05:11:21;101359.53;;;1.17;69.11
69173;BME280;56280;49.662;8.408;2023-04-05T05:13:46;101352.69;;;1.11;69.23
69173;BME280;56280;49.662;8.408;2023-04-05T05:16:12;101354.50;;;1.09;69.20
69173;BME280;56280;49.662;8.408;2023-04-05T05:18:37;101369.00;;;1.52;68.38
69173;BME280;56280;49.662;8.408;2023-04-05T05:21:05;101331.53;;;1.50;67.55
69173;BME280;56280;49.662;8.408;2023-04-05T05:23:31;101361.50;;;1.70;67.25
69173;BME280;56280;49.662;8.408;2023-04-05T05:25:57;101362.88;;;1.81;66.66
69173;BME280;56280;49.662;8.408;2023-04-05T05:28:26;101352.34;;;1.83;66.30
69173;BME280;56280;49.662;8.408;2023-04-05T05:30:52;101360.78;;;1.93;66.39
69173;BME280;56280;49.662;8.408;2023-04-05T05:33:17;101349.38;;;2.22;65.52
69173;BME280;56280;49.662;8.408;2023-04-05T05:35:42;101343.75;;;2.08;65.35
69173;BME280;56280;49.662;8.408;2023-04-05T05:38:08;101345.34;;;2.39;65.37
69173;BME280;56280;49.662;8.408;2023-04-05T05:40:33;101310.09;;;2.21;64.22
69173;BME280;56280;49.662;8.408;2023-04-05T05:42:58;101357.09;;;2.53;64.60
69173;BME280;56280;49.662;8.408;2023-04-05T05:45:24;101354.53;;;2.52;64.94
69173;BME280;56280;49.662;8.408;2023-04-05T05:47:49;101347.44;;;2.81;64.15
69173;BME280;56280;49.662;8.408;2023-04-05T05:50:14;101357.59;;;2.90;63.85
69173;BME280;56280;49.662;8.408;2023-04-05T05:52:41;101347.06;;;2.91;64.20
69173;BME280;56280;49.662;8.408;2023-04-05T05:55:06;101371.16;;;3.26;62.93
69173;BME280;56280;49.662;8.408;2023-04-05T05:57:32;101370.38;;;3.24;62.91
69173;BME280;56280;49.662;8.408;2023-04-05T05:59:57;101347.13;;;3.14;63.48
69173;BME280;56280;49.662;8.408;2023-04-05T06:02:23;101358.38;;;3.41;64.53
69173;BME280;56280;49.662;8.408;2023-04-05T06:04:48;101353.25;;;3.38;62.03
69173;BME280;56280;49.662;8.408;2023-04-05T06:07:13;101366.28;;;3.17;62.69
69173;BME280;56280;49.662;8.408;2023-04-05T06:09:39;101369.81;;;2.66;64.78
69173;BME280;56280;49.662;8.408;2023-04-05T06:12:04;101351.50;;;2.37;65.68
69173;BME280;56280;49.662;8.408;2023-04-05T06:14:29;101345.47;;;2.35;66.66
69173;BME280;56280;49.662;8.408;2023-04-05T06:16:55;101349.13;;;2.82;65.39
69173;BME280;56280;49.662;8.408;2023-04-05T06:19:21;101357.53;;;3.17;64.87
69173;BME280;56280;49.662;8.408;2023-04-05T06:21:46;101348.91;;;2.63;66.20
69173;BME280;56280;49.662;8.408;2023-04-05T06:24:11;101370.69;;;2.38;67.80
69173;BME280;56280;49.662;8.408;2023-04-05T06:26:37;101338.78;;;2.25;68.86
69173;BME280;56280;49.662;8.408;2023-04-05T06:29:02;101362.13;;;2.06;68.61
69173;BME280;56280;49.662;8.408;2023-04-05T06:31:32;101344.75;;;1.74;69.55
69173;BME280;56280;49.662;8.408;2023-04-05T06:33:58;101382.59;;;1.95;68.64
69173;BME280;56280;49.662;8.408;2023-04-05T06:36:23;101364.50;;;1.86;70.39
69173;BME280;56280;49.662;8.408;2023-04-05T06:38:49;101385.47;;;1.86;67.64
69173;BME280;56280;49.662;8.408;2023-04-05T06:41:15;101359.09;;;1.92;68.81
69173;BME280;56280;49.662;8.408;2023-04-05T06:43:41;101349.97;;;1.75;68.67
69173;BME280;56280;49.662;8.408;2023-04-05T06:46:06;101363.31;;;1.96;69.14
69173;BME280;56280;49.662;8.408;2023-04-05T06:48:33;101376.56;;;2.19;68.25
69173;BME280;56280;49.662;8.408;2023-04-05T06:51:00;101371.09;;;2.52;67.87
69173;BME280;56280;49.662;8.408;2023-04-05T06:53:27;101371.16;;;2.51;67.11
69173;BME280;56280;49.662;8.408;2023-04-05T06:55:56;101375.06;;;2.66;66.92
69173;BME280;56280;49.662;8.408;2023-04-05T06:58:23;101353.28;;;2.62;65.56
69173;BME280;56280;49.662;8.408;2023-04-05T07:00:49;101371.78;;;2.84;64.92
69173;BME280;56280;49.662;8.408;2023-04-05T07:03:15;101349.13;;;3.07;65.82
69173;BME280;56280;49.662;8.408;2023-04-05T07:05:55;101363.84;;;3.82;61.90
69173;BME280;56280;49.662;8.408;2023-04-05T07:08:24;101348.22;;;3.55;62.05
69173;BME280;56280;49.662;8.408;2023-04-05T07:10:49;101346.38;;;3.81;62.13
69173;BME280;56280;49.662;8.408;2023-04-05T07:13:15;101362.28;;;4.43;62.07
69173;BME280;56280;49.662;8.408;2023-04-05T07:15:42;101341.00;;;4.69;58.26
69173;BME280;56280;49.662;8.408;2023-04-05T07:18:07;101351.16;;;4.99;60.16
69173;BME280;56280;49.662;8.408;2023-04-05T07:20:32;101339.63;;;5.02;59.85
69173;BME280;56280;49.662;8.408;2023-04-05T07:22:58;101358.16;;;5.59;58.71
69173;BME280;56280;49.662;8.408;2023-04-05T07:25:23;101347.25;;;4.67;58.10
69173;BME280;56280;49.662;8.408;2023-04-05T07:27:48;101349.31;;;4.40;61.20
69173;BME280;56280;49.662;8.408;2023-04-05T07:30:14;101354.47;;;4.41;62.16
69173;BME280;56280;49.662;8.408;2023-04-05T07:32:39;101339.50;;;4.84;59.72
69173;BME280;56280;49.662;8.408;2023-04-05T07:35:05;101355.00;;;5.51;58.96
69173;BME280;56280;49.662;8.408;2023-04-05T07:37:30;101337.06;;;4.80;57.24
69173;BME280;56280;49.662;8.408;2023-04-05T07:39:56;101355.03;;;4.90;60.17
69173;BME280;56280;49.662;8.408;2023-04-05T07:42:22;101347.78;;;4.96;58.20
69173;BME280;56280;49.662;8.408;2023-04-05T07:44:48;101356.81;;;4.69;60.01
69173;BME280;56280;49.662;8.408;2023-04-05T07:47:13;101358.03;;;5.22;58.99
69173;BME280;56280;49.662;8.408;2023-04-05T07:49:38;101340.56;;;4.60;59.13
69173;BME280;56280;49.662;8.408;2023-04-05T07:52:04;101340.75;;;4.75;57.57
69173;BME280;56280;49.662;8.408;2023-04-05T07:54:31;101351.25;;;4.34;57.01
69173;BME280;56280;49.662;8.408;2023-04-05T07:56:57;101348.66;;;4.12;59.56
69173;BME280;56280;49.662;8.408;2023-04-05T07:59:23;101343.63;;;4.28;58.26
69173;BME280;56280;49.662;8.408;2023-04-05T08:01:48;101353.44;;;5.46;59.48
69173;BME280;56280;49.662;8.408;2023-04-05T08:04:13;101354.94;;;5.13;56.28
69173;BME280;56280;49.662;8.408;2023-04-05T08:06:39;101354.13;;;5.31;57.52
69173;BME280;56280;49.662;8.408;2023-04-05T08:09:04;101334.78;;;5.70;55.16
69173;BME280;56280;49.662;8.408;2023-04-05T08:11:30;101335.06;;;5.64;55.34
69173;BME280;56280;49.662;8.408;2023-04-05T08:13:56;101336.78;;;6.20;54.80
69173;BME280;56280;49.662;8.408;2023-04-05T08:16:21;101349.47;;;6.49;55.27
69173;BME280;56280;49.662;8.408;2023-04-05T08:18:47;101345.72;;;6.35;53.05
69173;BME280;56280;49.662;8.408;2023-04-05T08:21:12;101343.19;;;6.69;53.10
69173;BME280;56280;49.662;8.408;2023-04-05T08:23:37;101338.81;;;6.33;54.13
69173;BME280;56280;49.662;8.408;2023-04-05T08:26:02;101337.28;;;5.91;53.88
69173;BME280;56280;49.662;8.408;2023-04-05T08:28:28;101352.31;;;6.97;52.54
69173;BME280;56280;49.662;8.408;2023-04-05T08:30:53;101340.34;;;7.07;50.22
69173;BME280;56280;49.662;8.408;2023-04-05T08:33:19;101324.81;;;6.31;51.32
69173;BME280;56280;49.662;8.408;2023-04-05T08:35:45;101339.13;;;6.27;51.54
69173;BME280;56280;49.662;8.408;2023-04-05T08:38:10;101335.78;;;6.75;52.38
69173;BME280;56280;49.662;8.408;2023-04-05T08:40:41;101331.78;;;7.02;50.62
69173;BME280;56280;49.662;8.408;2023-04-05T08:43:20;101333.22;;;6.56;50.78
69173;BME280;56280;49.662;8.408;2023-04-05T08:45:51;101340.06;;;6.43;52.06
69173;BME280;56280;49.662;8.408;2023-04-05T08:48:17;101339.19;;;7.28;49.32
69173;BME280;56280;49.662;8.408;2023-04-05T08:50:53;101340.88;;;7.14;46.97
69173;BME280;56280;49.662;8.408;2023-04-05T08:53:19;101345.03;;;6.49;48.26
69173;BME280;56280;49.662;8.408;2023-04-05T08:55:48;101333.00;;;6.44;45.52
69173;BME280;56280;49.662;8.408;2023-04-05T08:58:15;101318.78;;;6.81;45.98
69173;BME280;56280;49.662;8.408;2023-04-05T09:00:41;101319.28;;;7.05;46.32
69173;BME280;56280;49.662;8.408;2023-04-05T09:03:15;101334.38;;;6.86;42.76
69173;BME280;56280;49.662;8.408;2023-04-05T09:05:44;101342.84;;;7.26;45.96
69173;BME280;56280;49.662;8.408;2023-04-05T09:08:11;101336.34;;;7.81;44.50
69173;BME280;56280;49.662;8.408;2023-04-05T09:10:37;101313.78;;;8.52;41.44
69173;BME280;56280;49.662;8.408;2023-04-05T09:13:02;101335.63;;;7.93;41.00
69173;BME280;56280;49.662;8.408;2023-04-05T09:15:29;101330.06;;;8.60;41.21
69173;BME280;56280;49.662;8.408;2023-04-05T09:17:55;101336.13;;;8.00;41.85
69173;BME280;56280;49.662;8.408;2023-04-05T09:20:21;101340.53;;;6.86;44.70
69173;BME280;56280;49.662;8.408;2023-04-05T09:22:46;101333.84;;;6.79;43.39
69173;BME280;56280;49.662;8.408;2023-04-05T09:27:55;101330.00;;;7.52;41.58
69173;BME280;56280;49.662;8.408;2023-04-05T09:30:21;101327.09;;;6.91;43.77
69173;BME280;56280;49.662;8.408;2023-04-05T09:32:50;101328.91;;;6.73;43.86
69173;BME280;56280;49.662;8.408;2023-04-05T09:35:24;101318.59;;;7.67;42.67
69173;BME280;56280;49.662;8.408;2023-04-05T09:37:51;101312.94;;;8.66;41.00
69173;BME280;56280;49.662;8.408;2023-04-05T09:40:17;101313.66;;;8.98;39.47
69173;BME280;56280;49.662;8.408;2023-04-05T09:42:44;101325.31;;;8.51;41.61
69173;BME280;56280;49.662;8.408;2023-04-05T09:45:15;101298.53;;;7.47;46.19
69173;BME280;56280;49.662;8.408;2023-04-05T09:47:42;101296.34;;;7.55;42.95
69173;BME280;56280;49.662;8.408;2023-04-05T09:50:17;101315.69;;;7.72;44.42
69173;BME280;56280;49.662;8.408;2023-04-05T09:52:43;101310.00;;;7.14;44.23
69173;BME280;56280;49.662;8.408;2023-04-05T09:55:09;101306.44;;;8.11;42.63
69173;BME280;56280;49.662;8.408;2023-04-05T09:57:36;101310.94;;;8.25;40.97
69173;BME280;56280;49.662;8.408;2023-04-05T10:00:03;101291.91;;;8.18;40.56
69173;BME280;56280;49.662;8.408;2023-04-05T10:02:36;101318.50;;;7.69;41.87
69173;BME280;56280;49.662;8.408;2023-04-05T10:05:05;101321.06;;;7.54;42.33
69173;BME280;56280;49.662;8.408;2023-04-05T10:07:31;101311.59;;;7.01;40.67
69173;BME280;56280;49.662;8.408;2023-04-05T10:09:56;101295.22;;;7.75;42.41
69173;BME280;56280;49.662;8.408;2023-04-05T10:12:24;101293.72;;;8.32;38.91
69173;BME280;56280;49.662;8.408;2023-04-05T10:14:51;101286.84;;;8.74;38.40
69173;BME280;56280;49.662;8.408;2023-04-05T10:17:25;101314.88;;;8.01;41.45
69173;BME280;56280;49.662;8.408;2023-04-05T10:22:45;101310.22;;;7.43;43.09
69173;BME280;56280;49.662;8.408;2023-04-05T10:25:24;101309.47;;;8.19;40.52
69173;BME280;56280;49.662;8.408;2023-04-05T10:27:53;101306.81;;;7.73;42.08
69173;BME280;56280;49.662;8.408;2023-04-05T10:30:23;101293.81;;;8.30;38.64
69173;BME280;56280;49.662;8.408;2023-04-05T10:35:33;101274.81;;;8.54;36.62
69173;BME280;56280;49.662;8.408;2023-04-05T10:38:12;101299.28;;;9.02;36.94
69173;BME280;56280;49.662;8.408;2023-04-05T10:40:45;101280.25;;;7.90;37.47
69173;BME280;56280;49.662;8.408;2023-04-05T10:43:16;101284.91;;;8.92;36.69
69173;BME280;56280;49.662;8.408;2023-04-05T10:45:43;101231.84;;;9.21;36.08
69173;BME280;56280;49.662;8.408;2023-04-05T10:51:00;101260.06;;;8.79;40.23
69173;BME280;56280;49.662;8.408;2023-04-05T10:53:25;101251.47;;;7.70;39.64
69173;BME280;56280;49.662;8.408;2023-04-05T10:55:52;101274.19;;;7.88;41.64
69173;BME280;56280;49.662;8.408;2023-04-05T10:58:19;101271.09;;;8.12;37.37
69173;BME280;56280;49.662;8.408;2023-04-05T11:00:46;101264.22;;;8.24;39.28
69173;BME280;56280;49.662;8.408;2023-04-05T11:08:57;101262.84;;;8.32;36.58
69173;BME280;56280;49.662;8.408;2023-04-05T11:11:23;101248.88;;;8.14;37.55
69173;BME280;56280;49.662;8.408;2023-04-05T11:13:56;101268.88;;;8.65;38.64
69173;BME280;56280;49.662;8.408;2023-04-05T11:16:23;101265.00;;;8.40;37.37
69173;BME280;56280;49.662;8.408;2023-04-05T11:19:02;101252.03;;;8.80;39.41
69173;BME280;56280;49.662;8.408;2023-04-05T11:21:28;101257.59;;;9.19;36.89
69173;BME280;56280;49.662;8.408;2023-04-05T11:24:06;101259.50;;;9.31;37.46
69173;BME280;56280;49.662;8.408;2023-04-05T11:29:14;101249.75;;;8.15;38.15
69173;BME280;56280;49.662;8.408;2023-04-05T11:31:59;101239.88;;;8.02;42.11
69173;BME280;56280;49.662;8.408;2023-04-05T11:34:25;101246.38;;;9.01;37.94
69173;BME280;56280;49.662;8.408;2023-04-05T11:36:50;101246.63;;;9.25;36.77
69173;BME280;56280;49.662;8.408;2023-04-05T11:42:08;101248.19;;;7.80;38.92
69173;BME280;56280;49.662;8.408;2023-04-05T11:44:45;101248.19;;;8.11;40.73
69173;BME280;56280;49.662;8.408;2023-04-05T11:47:11;101233.47;;;8.21;38.94
69173;BME280;56280;49.662;8.408;2023-04-05T11:49:37;101235.66;;;8.59;40.23
69173;BME280;56280;49.662;8.408;2023-04-05T11:52:18;101249.78;;;7.99;38.56
69173;BME280;56280;49.662;8.408;2023-04-05T11:54:44;101243.28;;;7.89;39.54
69173;BME280;56280;49.662;8.408;2023-04-05T11:57:21;101241.03;;;8.13;40.41
69173;BME280;56280;49.662;8.408;2023-04-05T11:59:49;101228.19;;;8.21;37.38
69173;BME280;56280;49.662;8.408;2023-04-05T12:02:16;101210.00;;;8.60;36.19
69173;BME280;56280;49.662;8.408;2023-04-05T12:04:41;101194.53;;;8.68;36.22
69173;BME280;56280;49.662;8.408;2023-04-05T12:07:18;101225.44;;;9.10;36.81
69173;BME280;56280;49.662;8.408;2023-04-05T12:12:31;101220.88;;;9.54;36.72
69173;BME280;56280;49.662;8.408;2023-04-05T12:14:58;101224.44;;;9.67;36.38
69173;BME280;56280;49.662;8.408;2023-04-05T12:17:43;101217.78;;;9.75;35.30
69173;BME280;56280;49.662;8.408;2023-04-05T12:20:10;101202.44;;;9.38;34.81
69173;BME280;56280;49.662;8.408;2023-04-05T12:22:37;101217.84;;;9.19;37.27
69173;BME280;56280;49.662;8.408;2023-04-05T12:25:03;101203.72;;;8.32;36.14
69173;BME280;56280;49.662;8.408;2023-04-05T12:27:29;101212.50;;;8.18;38.17
69173;BME280;56280;49.662;8.408;2023-04-05T12:30:05;101210.53;;;8.21;38.50
69173;BME280;56280;49.662;8.408;2023-04-05T12:32:44;101192.28;;;8.31;34.55
69173;BME280;56280;49.662;8.408;2023-04-05T12:35:31;101201.03;;;8.91;34.46
69173;BME280;56280;49.662;8.408;2023-04-05T12:37:57;101185.75;;;9.51;32.79
69173;BME280;56280;49.662;8.408;2023-04-05T12:40:23;101190.72;;;9.42;33.24
69173;BME280;56280;49.662;8.408;2023-04-05T12:42:49;101183.63;;;8.87;34.72
69173;BME280;56280;49.662;8.408;2023-04-05T12:45:14;101191.16;;;8.35;36.61
69173;BME280;56280;49.662;8.408;2023-04-05T12:48:08;101200.84;;;9.08;35.12
69173;BME280;56280;49.662;8.408;2023-04-05T12:50:35;101195.16;;;9.00;39.42
69173;BME280;56280;49.662;8.408;2023-04-05T12:53:04;101186.91;;;8.33;37.71
69173;BME280;56280;49.662;8.408;2023-04-05T12:55:30;101190.75;;;8.27;36.53
69173;BME280;56280;49.662;8.408;2023-04-05T12:58:00;101169.34;;;8.46;35.80
69173;BME280;56280;49.662;8.408;2023-04-05T13:00:27;101170.19;;;9.59;33.53
69173;BME280;56280;49.662;8.408;2023-04-05T13:02:54;101167.72;;;9.96;33.23
69173;BME280;56280;49.662;8.408;2023-04-05T13:05:27;101145.25;;;10.14;34.37
69173;BME280;56280;49.662;8.408;2023-04-05T13:07:52;101167.56;;;10.50;33.03
69173;BME280;56280;49.662;8.408;2023-04-05T13:10:19;101154.69;;;10.57;33.83
69173;BME280;56280;49.662;8.408;2023-04-05T13:12:45;101128.66;;;10.62;34.74
69173;BME280;56280;49.662;8.408;2023-04-05T13:15:11;101153.53;;;11.11;31.37
69173;BME280;56280;49.662;8.408;2023-04-05T13:17:38;101154.56;;;11.21;31.64
69173;BME280;56280;49.662;8.408;2023-04-05T13:20:04;101143.81;;;11.23;31.43
69173;BME280;56280;49.662;8.408;2023-04-05T13:22:29;101137.09;;;11.17;31.58
69173;BME280;56280;49.662;8.408;2023-04-05T13:24:55;101138.72;;;11.20;30.50
69173;BME280;56280;49.662;8.408;2023-04-05T13:27:20;101134.97;;;10.98;31.01
69173;BME280;56280;49.662;8.408;2023-04-05T13:29:46;101128.84;;;10.72;32.40
69173;BME280;56280;49.662;8.408;2023-04-05T13:32:12;101119.50;;;10.79;31.90
69173;BME280;56280;49.662;8.408;2023-04-05T13:34:37;101122.63;;;10.97;32.03
69173;BME280;56280;49.662;8.408;2023-04-05T13:37:02;101136.06;;;10.83;30.53
69173;BME280;56280;49.662;8.408;2023-04-05T13:39:28;101137.25;;;11.03;30.16